createdAt,value
2022-11-21T00:00:02.793Z,995.65
2022-11-21T00:01:02.476Z,995.70
2022-11-21T00:02:02.658Z,995.67
2022-11-21T00:03:02.998Z,995.68
2022-11-21T00:04:02.435Z,995.68
2022-11-21T00:05:02.487Z,995.72
2022-11-21T00:06:02.945Z,995.65
2022-11-21T00:07:02.123Z,995.65
2022-11-21T00:08:02.433Z,995.57
2022-11-21T00:09:02.119Z,995.58
2022-11-21T00:10:02.050Z,995.65
2022-11-21T00:11:01.974Z,995.65
2022-11-21T00:12:02.582Z,995.69
2022-11-21T00:13:02.274Z,995.70
2022-11-21T00:14:02.744Z,995.63
2022-11-21T00:15:02.345Z,995.68
2022-11-21T00:16:02.715Z,995.64
2022-11-21T00:17:02.038Z,995.69
2022-11-21T00:18:02.034Z,995.73
2022-11-21T00:19:01.935Z,995.74
2022-11-21T00:20:02.478Z,995.78
2022-11-21T00:21:01.926Z,995.74
2022-11-21T00:22:02.825Z,995.80
2022-11-21T00:23:02.842Z,995.80
2022-11-21T00:24:02.476Z,995.83
2022-11-21T00:25:02.468Z,995.88
2022-11-21T00:26:02.941Z,995.83
2022-11-21T00:27:02.161Z,995.82
2022-11-21T00:28:01.790Z,995.84
2022-11-21T00:29:02.356Z,995.84
2022-11-21T00:30:02.364Z,995.79
2022-11-21T00:31:01.983Z,995.76
2022-11-21T00:32:01.933Z,995.81
2022-11-21T00:33:02.029Z,995.84
2022-11-21T00:34:02.433Z,995.81
2022-11-21T00:35:01.960Z,995.81
2022-11-21T00:36:02.211Z,995.75
2022-11-21T00:37:02.389Z,995.81
2022-11-21T00:38:02.082Z,995.77
2022-11-21T00:39:01.957Z,995.78
2022-11-21T00:40:02.450Z,995.77
2022-11-21T00:41:02.131Z,995.81
2022-11-21T00:42:02.645Z,995.80
2022-11-21T00:43:02.317Z,995.79
2022-11-21T00:44:02.303Z,995.80
2022-11-21T00:45:02.496Z,995.74
2022-11-21T00:46:02.940Z,995.75
2022-11-21T00:47:02.703Z,995.79
2022-11-21T00:48:02.431Z,995.77
2022-11-21T00:49:02.704Z,995.78
2022-11-21T00:50:03.037Z,995.71
2022-11-21T00:51:02.999Z,995.73
2022-11-21T00:52:02.137Z,995.80
2022-11-21T00:53:01.950Z,995.77
2022-11-21T00:54:01.797Z,995.79
2022-11-21T00:55:01.644Z,995.74
2022-11-21T00:56:01.572Z,995.73
2022-11-21T00:57:02.074Z,995.68
2022-11-21T00:58:02.468Z,995.67
2022-11-21T00:59:02.418Z,995.70
2022-11-21T01:00:02.056Z,995.74
2022-11-21T01:01:02.199Z,995.73
2022-11-21T01:02:03.272Z,995.67
2022-11-21T01:03:02.626Z,995.66
2022-11-21T01:04:03.264Z,995.66
2022-11-21T01:05:03.335Z,995.66
2022-11-21T01:06:02.595Z,995.66
2022-11-21T01:07:02.624Z,995.66
2022-11-21T01:08:02.415Z,995.69
2022-11-21T01:09:02.239Z,995.66
2022-11-21T01:10:02.282Z,995.53
2022-11-21T01:11:02.406Z,995.65
2022-11-21T01:12:02.077Z,995.64
2022-11-21T01:13:02.465Z,995.62
2022-11-21T01:14:02.149Z,995.68
2022-11-21T01:15:02.271Z,995.65
2022-11-21T01:16:02.439Z,995.71
2022-11-21T01:17:03.033Z,995.71
2022-11-21T01:18:03.190Z,995.69
2022-11-21T01:19:02.640Z,995.66
2022-11-21T01:20:02.727Z,995.71
2022-11-21T01:21:02.749Z,995.76
2022-11-21T01:22:02.163Z,995.70
2022-11-21T01:23:02.251Z,995.72
2022-11-21T01:24:02.410Z,995.77
2022-11-21T01:25:02.295Z,995.82
2022-11-21T01:26:02.849Z,995.77
2022-11-21T01:27:02.471Z,995.79
2022-11-21T01:28:02.350Z,995.73
2022-11-21T01:29:02.285Z,995.81
2022-11-21T01:30:02.513Z,995.83
2022-11-21T01:31:02.427Z,995.74
2022-11-21T01:32:02.832Z,995.74
2022-11-21T01:33:02.715Z,995.81
2022-11-21T01:34:02.861Z,995.79
2022-11-21T01:35:02.920Z,995.83
2022-11-21T01:36:02.776Z,995.83
2022-11-21T01:37:02.259Z,995.83
2022-11-21T01:38:02.077Z,995.84
2022-11-21T01:39:02.080Z,995.89
2022-11-21T01:40:02.415Z,995.90
2022-11-21T01:41:02.571Z,995.92
2022-11-21T01:42:02.176Z,995.95
2022-11-21T01:43:02.555Z,995.93
2022-11-21T01:44:02.830Z,995.97
2022-11-21T01:45:02.728Z,995.92
2022-11-21T01:46:02.422Z,996.01
2022-11-21T01:47:02.623Z,995.99
2022-11-21T01:48:02.951Z,996.04
2022-11-21T01:49:03.002Z,995.99
2022-11-21T01:50:02.582Z,995.99
2022-11-21T01:51:02.687Z,995.98
2022-11-21T01:52:02.389Z,995.95
2022-11-21T01:53:02.026Z,995.95
2022-11-21T01:54:02.228Z,995.90
2022-11-21T01:55:02.210Z,995.94
2022-11-21T01:56:01.883Z,995.91
2022-11-21T01:57:02.134Z,995.89
2022-11-21T01:58:02.504Z,995.93
2022-11-21T01:59:02.444Z,995.92
2022-11-21T02:00:02.403Z,995.85
2022-11-21T02:01:02.257Z,995.91
2022-11-21T02:02:02.783Z,995.88
2022-11-21T02:03:02.679Z,995.89
2022-11-21T02:04:02.396Z,995.91
2022-11-21T02:05:02.403Z,995.88
2022-11-21T02:06:02.411Z,995.91
2022-11-21T02:07:02.695Z,995.89
2022-11-21T02:08:02.878Z,995.91
2022-11-21T02:09:02.962Z,995.92
2022-11-21T02:10:03.007Z,995.93
2022-11-21T02:11:02.598Z,995.91
2022-11-21T02:12:03.146Z,995.88
2022-11-21T02:13:03.320Z,995.90
2022-11-21T02:14:03.144Z,995.91
2022-11-21T02:15:03.208Z,995.84
2022-11-21T02:16:03.037Z,995.90
2022-11-21T02:17:02.379Z,995.87
2022-11-21T02:18:02.706Z,995.86
2022-11-21T02:19:02.448Z,995.85
2022-11-21T02:20:02.750Z,995.89
2022-11-21T02:21:02.208Z,995.88
2022-11-21T02:22:02.463Z,995.93
2022-11-21T02:23:02.773Z,995.94
2022-11-21T02:24:02.546Z,995.93
2022-11-21T02:25:02.582Z,995.93
2022-11-21T02:26:02.448Z,995.95
2022-11-21T02:27:03.105Z,995.95
2022-11-21T02:28:02.972Z,995.91
2022-11-21T02:29:03.147Z,995.96
2022-11-21T02:30:03.045Z,995.98
2022-11-21T02:31:02.884Z,995.98
2022-11-21T02:32:02.303Z,996.02
2022-11-21T02:33:02.652Z,995.98
2022-11-21T02:34:02.647Z,995.95
2022-11-21T02:35:02.248Z,995.97
2022-11-21T02:36:02.147Z,995.97
2022-11-21T02:37:03.014Z,995.99
2022-11-21T02:38:03.390Z,995.95
2022-11-21T02:39:02.904Z,995.97
2022-11-21T02:40:03.761Z,995.98
2022-11-21T02:41:03.227Z,995.95
2022-11-21T02:42:02.589Z,996.00
2022-11-21T02:43:02.287Z,995.99
2022-11-21T02:44:02.623Z,995.99
2022-11-21T02:45:02.266Z,995.99
2022-11-21T02:46:02.150Z,995.96
2022-11-21T02:47:03.381Z,995.95
2022-11-21T02:48:04.481Z,995.95
2022-11-21T02:49:03.478Z,995.95
2022-11-21T02:50:03.130Z,996.00
2022-11-21T02:51:03.049Z,995.95
2022-11-21T02:52:02.612Z,995.95
2022-11-21T02:53:02.496Z,995.99
2022-11-21T02:54:02.400Z,995.96
2022-11-21T02:55:02.426Z,995.98
2022-11-21T02:56:02.334Z,996.04
2022-11-21T02:57:02.588Z,996.10
2022-11-21T02:58:05.288Z,996.17
2022-11-21T02:59:02.675Z,996.11
2022-11-21T03:00:02.678Z,996.08
2022-11-21T03:01:02.961Z,996.09
2022-11-21T03:02:01.659Z,996.06
2022-11-21T03:03:01.750Z,996.09
2022-11-21T03:04:01.744Z,996.06
2022-11-21T03:05:01.894Z,996.10
2022-11-21T03:06:01.865Z,996.04
2022-11-21T03:07:01.841Z,996.10
2022-11-21T03:08:02.255Z,996.08
2022-11-21T03:09:01.661Z,996.04
2022-11-21T03:10:02.240Z,996.05
2022-11-21T03:11:01.941Z,996.05
2022-11-21T03:12:02.218Z,996.06
2022-11-21T03:13:02.306Z,996.04
2022-11-21T03:14:02.436Z,996.05
2022-11-21T03:15:02.090Z,996.08
2022-11-21T03:16:02.310Z,996.09
2022-11-21T03:17:02.330Z,996.10
2022-11-21T03:18:02.443Z,996.08
2022-11-21T03:19:02.788Z,996.07
2022-11-21T03:20:02.287Z,996.12
2022-11-21T03:21:02.717Z,996.10
2022-11-21T03:22:01.671Z,996.11
2022-11-21T03:23:01.927Z,996.11
2022-11-21T03:24:01.794Z,996.11
2022-11-21T03:25:02.140Z,996.11
2022-11-21T03:26:01.824Z,996.14
2022-11-21T03:27:02.651Z,996.17
2022-11-21T03:28:02.679Z,996.13
2022-11-21T03:29:02.117Z,996.12
2022-11-21T03:30:02.633Z,996.15
2022-11-21T03:31:02.400Z,996.12
2022-11-21T03:32:02.476Z,996.11
2022-11-21T03:33:02.459Z,996.12
2022-11-21T03:34:02.624Z,996.15
2022-11-21T03:35:02.329Z,996.14
2022-11-21T03:36:02.600Z,996.17
2022-11-21T03:37:01.920Z,996.15
2022-11-21T03:38:01.799Z,996.13
2022-11-21T03:39:01.825Z,996.16
2022-11-21T03:40:01.474Z,996.16
2022-11-21T03:41:02.021Z,996.19
2022-11-21T03:42:02.280Z,996.17
2022-11-21T03:43:02.291Z,996.24
2022-11-21T03:44:02.181Z,996.17
2022-11-21T03:45:02.558Z,996.26
2022-11-21T03:46:02.108Z,996.25
2022-11-21T03:47:01.469Z,996.23
2022-11-21T03:48:01.471Z,996.22
2022-11-21T03:49:01.518Z,996.24
2022-11-21T03:50:01.906Z,996.24
2022-11-21T03:51:02.001Z,996.29
2022-11-21T03:52:02.027Z,996.23
2022-11-21T03:53:01.946Z,996.23
2022-11-21T03:54:01.600Z,996.24
2022-11-21T03:55:02.228Z,996.25
2022-11-21T03:56:02.192Z,996.23
2022-11-21T03:57:02.695Z,996.25
2022-11-21T03:58:02.513Z,996.26
2022-11-21T03:59:02.535Z,996.29
2022-11-21T04:00:02.166Z,996.24
2022-11-21T04:01:02.716Z,996.26
2022-11-21T04:02:02.963Z,996.26
2022-11-21T04:03:02.805Z,996.31
2022-11-21T04:04:03.129Z,996.28
2022-11-21T04:05:03.177Z,996.24
2022-11-21T04:06:03.058Z,996.30
2022-11-21T04:07:02.486Z,996.29
2022-11-21T04:08:02.478Z,996.30
2022-11-21T04:09:02.761Z,996.28
2022-11-21T04:10:03.004Z,996.26
2022-11-21T04:11:02.934Z,996.27
2022-11-21T04:12:07.531Z,996.23
2022-11-21T04:13:03.291Z,996.27
2022-11-21T04:14:03.014Z,996.23
2022-11-21T04:15:03.182Z,996.24
2022-11-21T04:16:02.871Z,996.24
2022-11-21T04:17:02.219Z,996.21
2022-11-21T04:18:02.482Z,996.24
2022-11-21T04:19:02.586Z,996.27
2022-11-21T04:20:02.130Z,996.24
2022-11-21T04:21:02.408Z,996.28
2022-11-21T04:22:03.126Z,996.22
2022-11-21T04:23:02.853Z,996.19
2022-11-21T04:24:03.236Z,996.19
2022-11-21T04:25:02.646Z,996.16
2022-11-21T04:26:03.014Z,996.17
2022-11-21T04:27:02.310Z,996.16
2022-11-21T04:28:02.233Z,996.18
2022-11-21T04:29:02.363Z,996.16
2022-11-21T04:30:02.252Z,996.15
2022-11-21T04:31:05.729Z,996.13
2022-11-21T04:32:02.587Z,996.18
2022-11-21T04:33:02.867Z,996.16
2022-11-21T04:34:03.051Z,996.16
2022-11-21T04:35:02.803Z,996.20
2022-11-21T04:36:02.969Z,996.21
2022-11-21T04:37:03.642Z,996.23
2022-11-21T04:38:02.620Z,996.22
2022-11-21T04:39:02.631Z,996.22
2022-11-21T04:40:02.504Z,996.26
2022-11-21T04:41:02.206Z,996.24
2022-11-21T04:42:02.509Z,996.25
2022-11-21T04:43:02.826Z,996.24
2022-11-21T04:44:02.371Z,996.24
2022-11-21T04:45:02.724Z,996.19
2022-11-21T04:46:02.428Z,996.23
2022-11-21T04:47:05.589Z,996.26
2022-11-21T04:48:03.355Z,996.21
2022-11-21T04:49:02.765Z,996.19
2022-11-21T04:50:02.601Z,996.20
2022-11-21T04:51:02.577Z,996.15
2022-11-21T04:52:02.167Z,996.14
2022-11-21T04:53:02.479Z,996.16
2022-11-21T04:54:02.080Z,996.15
2022-11-21T04:55:02.558Z,996.17
2022-11-21T04:56:02.545Z,996.17
2022-11-21T04:57:02.948Z,996.17
2022-11-21T04:58:02.806Z,996.19
2022-11-21T04:59:02.886Z,996.15
2022-11-21T05:00:02.707Z,996.17
2022-11-21T05:01:02.892Z,996.18
2022-11-21T05:02:02.577Z,996.19
2022-11-21T05:03:02.199Z,996.20
2022-11-21T05:04:02.564Z,996.18
2022-11-21T05:05:02.521Z,996.23
2022-11-21T05:06:02.798Z,996.19
2022-11-21T05:07:02.683Z,996.21
2022-11-21T05:08:02.712Z,996.27
2022-11-21T05:09:02.823Z,996.27
2022-11-21T05:10:03.084Z,996.30
2022-11-21T05:11:03.118Z,996.23
2022-11-21T05:12:02.248Z,996.25
2022-11-21T05:13:01.982Z,996.22
2022-11-21T05:14:02.123Z,996.22
2022-11-21T05:15:01.930Z,996.20
2022-11-21T05:16:01.904Z,996.21
2022-11-21T05:17:02.328Z,996.21
2022-11-21T05:18:02.054Z,996.23
2022-11-21T05:19:02.227Z,996.24
2022-11-21T05:20:01.999Z,996.25
2022-11-21T05:21:02.250Z,996.21
2022-11-21T05:22:02.544Z,996.28
2022-11-21T05:23:03.080Z,996.22
2022-11-21T05:24:02.446Z,996.20
2022-11-21T05:25:02.890Z,996.16
2022-11-21T05:26:02.571Z,996.17
2022-11-21T05:27:02.994Z,996.12
2022-11-21T05:28:02.693Z,996.12
2022-11-21T05:29:02.968Z,996.12
2022-11-21T05:30:03.077Z,996.05
2022-11-21T05:31:02.653Z,996.07
2022-11-21T05:32:02.654Z,996.03
2022-11-21T05:33:02.643Z,996.03
2022-11-21T05:34:02.423Z,996.02
2022-11-21T05:35:02.183Z,995.97
2022-11-21T05:36:02.243Z,995.94
2022-11-21T05:37:02.855Z,995.92
2022-11-21T05:38:02.386Z,995.89
2022-11-21T05:39:02.543Z,995.94
2022-11-21T05:40:02.325Z,995.92
2022-11-21T05:41:02.590Z,995.95
2022-11-21T05:42:03.373Z,995.91
2022-11-21T05:43:01.824Z,995.94
2022-11-21T05:44:02.222Z,995.98
2022-11-21T05:45:02.104Z,996.03
2022-11-21T05:46:01.828Z,996.01
2022-11-21T05:47:02.438Z,996.03
2022-11-21T05:48:02.889Z,996.04
2022-11-21T05:49:02.511Z,996.06
2022-11-21T05:50:02.462Z,996.08
2022-11-21T05:51:02.789Z,996.08
2022-11-21T05:52:02.487Z,996.12
2022-11-21T05:53:02.763Z,996.09
2022-11-21T05:54:02.511Z,996.07
2022-11-21T05:55:02.957Z,996.08
2022-11-21T05:56:02.744Z,996.11
2022-11-21T05:57:02.322Z,996.10
2022-11-21T05:58:02.074Z,996.11
2022-11-21T05:59:01.745Z,996.11
2022-11-21T06:00:01.911Z,996.07
2022-11-21T06:01:01.906Z,996.12
2022-11-21T06:02:02.891Z,996.06
2022-11-21T06:03:02.867Z,996.05
2022-11-21T06:04:02.947Z,996.06
2022-11-21T06:05:02.615Z,996.04
2022-11-21T06:06:02.300Z,996.04
2022-11-21T06:07:03.196Z,996.01
2022-11-21T06:08:02.881Z,996.05
2022-11-21T06:09:02.851Z,996.07
2022-11-21T06:10:03.029Z,996.08
2022-11-21T06:11:02.510Z,996.07
2022-11-21T06:12:03.591Z,996.11
2022-11-21T06:13:03.564Z,996.12
2022-11-21T06:14:03.460Z,996.08
2022-11-21T06:15:03.056Z,996.09
2022-11-21T06:16:03.282Z,996.10
2022-11-21T06:17:03.516Z,996.08
2022-11-21T06:18:03.433Z,996.13
2022-11-21T06:19:03.557Z,996.11
2022-11-21T06:20:03.315Z,996.11
2022-11-21T06:21:03.601Z,996.11
2022-11-21T06:22:02.224Z,996.11
2022-11-21T06:23:02.829Z,996.09
2022-11-21T06:24:02.853Z,996.09
2022-11-21T06:25:02.685Z,996.07
2022-11-21T06:26:02.582Z,996.07
2022-11-21T06:27:02.346Z,996.08
2022-11-21T06:28:02.774Z,996.04
2022-11-21T06:29:02.441Z,996.06
2022-11-21T06:30:02.592Z,996.02
2022-11-21T06:31:02.759Z,996.03
2022-11-21T06:32:02.960Z,996.03
2022-11-21T06:33:03.456Z,996.06
2022-11-21T06:34:03.342Z,996.00
2022-11-21T06:35:03.102Z,995.98
2022-11-21T06:36:03.500Z,995.96
2022-11-21T06:37:03.183Z,995.94
2022-11-21T06:38:03.653Z,995.96
2022-11-21T06:39:03.079Z,995.94
2022-11-21T06:40:03.486Z,995.98
2022-11-21T06:41:03.170Z,995.90
2022-11-21T06:42:02.707Z,995.95
2022-11-21T06:43:03.159Z,995.93
2022-11-21T06:44:02.837Z,995.95
2022-11-21T06:45:03.062Z,995.95
2022-11-21T06:46:02.745Z,995.96
2022-11-21T06:47:02.730Z,996.00
2022-11-21T06:48:03.070Z,995.99
2022-11-21T06:49:02.730Z,995.94
2022-11-21T06:50:03.187Z,995.96
2022-11-21T06:51:03.059Z,995.94
2022-11-21T06:52:02.903Z,995.96
2022-11-21T06:53:02.688Z,996.00
2022-11-21T06:54:03.306Z,996.01
2022-11-21T06:55:03.169Z,996.04
2022-11-21T06:56:03.216Z,996.02
2022-11-21T06:57:03.115Z,996.06
2022-11-21T06:58:03.228Z,996.06
2022-11-21T06:59:03.354Z,996.06
2022-11-21T07:00:03.529Z,996.09
2022-11-21T07:01:03.627Z,996.05
2022-11-21T07:02:03.158Z,996.11
2022-11-21T07:03:03.765Z,996.10
2022-11-21T07:04:03.620Z,996.14
2022-11-21T07:05:03.575Z,996.10
2022-11-21T07:06:03.392Z,996.10
2022-11-21T07:07:03.255Z,996.14
2022-11-21T07:08:03.481Z,996.17
2022-11-21T07:09:32.655Z,996.18
2022-11-21T07:10:03.493Z,996.12
2022-11-21T07:11:24.051Z,996.14
2022-11-21T07:12:02.959Z,996.17
2022-11-21T07:13:02.527Z,996.16
2022-11-21T07:14:08.790Z,996.14
2022-11-21T07:15:02.962Z,996.16
2022-11-21T07:16:02.522Z,996.12
2022-11-21T07:17:03.437Z,996.14
2022-11-21T07:18:03.596Z,996.17
2022-11-21T07:19:03.368Z,996.19
2022-11-21T07:20:03.369Z,996.20
2022-11-21T07:21:03.541Z,996.16
2022-11-21T07:22:03.165Z,996.16
2022-11-21T07:23:03.603Z,996.16
2022-11-21T07:24:03.094Z,996.12
2022-11-21T07:25:03.664Z,996.11
2022-11-21T07:26:03.408Z,996.08
2022-11-21T07:27:02.832Z,996.12
2022-11-21T07:28:03.019Z,996.11
2022-11-21T07:29:02.729Z,996.05
2022-11-21T07:30:02.646Z,996.07
2022-11-21T07:31:07.093Z,996.08
2022-11-21T07:32:03.535Z,996.10
2022-11-21T07:33:03.310Z,996.07
2022-11-21T07:34:03.421Z,996.08
2022-11-21T07:35:03.392Z,996.10
2022-11-21T07:36:03.249Z,996.08
2022-11-21T07:37:05.130Z,996.10
2022-11-21T07:38:03.013Z,996.11
2022-11-21T07:39:03.096Z,996.11
2022-11-21T07:40:03.130Z,996.11
2022-11-21T07:41:02.884Z,996.10
2022-11-21T07:42:02.859Z,996.09
2022-11-21T07:43:05.461Z,996.09
2022-11-21T07:44:02.645Z,996.03
2022-11-21T07:45:02.896Z,996.05
2022-11-21T07:46:02.679Z,996.03
2022-11-21T07:47:03.643Z,996.08
2022-11-21T07:48:03.552Z,996.09
2022-11-21T07:49:03.695Z,996.06
2022-11-21T07:50:03.619Z,996.12
2022-11-21T07:51:03.598Z,996.06
2022-11-21T07:52:02.730Z,996.08
2022-11-21T07:53:02.429Z,996.05
2022-11-21T07:54:02.934Z,996.03
2022-11-21T07:55:02.700Z,996.04
2022-11-21T07:56:02.485Z,996.02
2022-11-21T07:57:02.803Z,996.02
2022-11-21T07:58:03.082Z,996.04
2022-11-21T07:59:02.872Z,996.05
2022-11-21T08:00:02.644Z,996.05
2022-11-21T08:01:02.748Z,996.05
2022-11-21T08:02:02.373Z,996.04
2022-11-21T08:03:02.243Z,996.04
2022-11-21T08:04:02.015Z,996.01
2022-11-21T08:05:02.261Z,995.97
2022-11-21T08:06:02.112Z,995.98
2022-11-21T08:07:02.243Z,995.97
2022-11-21T08:08:02.699Z,995.96
2022-11-21T08:09:02.328Z,995.96
2022-11-21T08:10:02.099Z,996.07
2022-11-21T08:11:02.552Z,996.04
2022-11-21T08:12:02.011Z,996.04
2022-11-21T08:13:01.657Z,996.06
2022-11-21T08:14:02.267Z,996.03
2022-11-21T08:15:01.834Z,996.03
2022-11-21T08:16:01.660Z,996.01
2022-11-21T08:17:02.706Z,995.98
2022-11-21T08:18:02.632Z,995.89
2022-11-21T08:19:02.399Z,995.88
2022-11-21T08:20:02.246Z,995.83
2022-11-21T08:21:02.700Z,995.81
2022-11-21T08:22:01.984Z,995.79
2022-11-21T08:23:01.869Z,995.77
2022-11-21T08:24:01.699Z,995.74
2022-11-21T08:25:02.200Z,995.75
2022-11-21T08:26:02.298Z,995.77
2022-11-21T08:27:02.324Z,995.80
2022-11-21T08:28:01.991Z,995.80
2022-11-21T08:29:01.935Z,995.85
2022-11-21T08:30:02.390Z,995.87
2022-11-21T08:31:01.962Z,995.88
2022-11-21T08:32:02.864Z,995.90
2022-11-21T08:33:02.887Z,995.95
2022-11-21T08:34:02.557Z,995.90
2022-11-21T08:35:02.561Z,995.92
2022-11-21T08:36:02.342Z,995.94
2022-11-21T08:37:01.713Z,995.91
2022-11-21T08:38:01.903Z,995.92
2022-11-21T08:39:01.622Z,995.94
2022-11-21T08:40:02.178Z,995.91
2022-11-21T08:41:02.175Z,995.92
2022-11-21T08:42:02.547Z,995.95
2022-11-21T08:43:02.566Z,995.92
2022-11-21T08:44:02.577Z,995.91
2022-11-21T08:45:02.308Z,995.95
2022-11-21T08:46:02.585Z,995.93
2022-11-21T08:47:02.710Z,995.91
2022-11-21T08:48:02.840Z,995.87
2022-11-21T08:49:02.706Z,995.90
2022-11-21T08:50:08.585Z,995.88
2022-11-21T08:51:02.977Z,995.90
2022-11-21T08:52:02.017Z,995.92
2022-11-21T08:53:02.070Z,995.94
2022-11-21T08:54:01.654Z,995.90
2022-11-21T08:55:01.872Z,995.87
2022-11-21T08:56:04.355Z,995.84
2022-11-21T08:57:02.460Z,995.90
2022-11-21T08:58:01.852Z,995.88
2022-11-21T08:59:02.137Z,995.86
2022-11-21T09:00:02.186Z,995.86
2022-11-21T09:01:02.095Z,995.85
2022-11-21T09:02:01.535Z,995.85
2022-11-21T09:03:01.848Z,995.83
2022-11-21T09:04:01.572Z,995.83
2022-11-21T09:05:01.731Z,995.84
2022-11-21T09:06:01.722Z,995.84
2022-11-21T09:07:02.037Z,995.83
2022-11-21T09:08:02.043Z,995.84
2022-11-21T09:09:02.062Z,995.86
2022-11-21T09:10:02.609Z,995.85
2022-11-21T09:11:02.404Z,995.90
2022-11-21T09:12:02.243Z,995.84
2022-11-21T09:13:02.377Z,995.87
2022-11-21T09:14:02.270Z,995.85
2022-11-21T09:15:02.694Z,995.82
2022-11-21T09:16:02.420Z,995.80
2022-11-21T09:17:02.438Z,995.78
2022-11-21T09:18:01.497Z,995.79
2022-11-21T09:19:01.429Z,995.77
2022-11-21T09:20:01.830Z,995.74
2022-11-21T09:21:01.421Z,995.73
2022-11-21T09:22:01.949Z,995.69
2022-11-21T09:23:02.376Z,995.68
2022-11-21T09:24:02.490Z,995.67
2022-11-21T09:25:02.018Z,995.64
2022-11-21T09:26:02.049Z,995.64
2022-11-21T09:27:01.491Z,995.68
2022-11-21T09:28:02.035Z,995.64
2022-11-21T09:29:01.667Z,995.65
2022-11-21T09:30:01.488Z,995.62
2022-11-21T09:31:01.588Z,995.64
2022-11-21T09:32:01.782Z,995.64
2022-11-21T09:33:02.127Z,995.66
2022-11-21T09:34:01.849Z,995.64
2022-11-21T09:35:02.346Z,995.65
2022-11-21T09:36:01.824Z,995.62
2022-11-21T09:37:02.162Z,995.66
2022-11-21T09:38:02.629Z,995.68
2022-11-21T09:39:02.478Z,995.66
2022-11-21T09:40:02.646Z,995.69
2022-11-21T09:41:02.497Z,995.72
2022-11-21T09:42:02.764Z,995.68
2022-11-21T09:43:02.636Z,995.65
2022-11-21T09:44:02.559Z,995.69
2022-11-21T09:45:02.534Z,995.66
2022-11-21T09:46:02.857Z,995.66
2022-11-21T09:47:02.470Z,995.69
2022-11-21T09:48:02.903Z,995.69
2022-11-21T09:49:03.094Z,995.70
2022-11-21T09:50:02.989Z,995.68
2022-11-21T09:51:02.389Z,995.68
2022-11-21T09:52:02.069Z,995.67
2022-11-21T09:53:01.973Z,995.65
2022-11-21T09:54:01.943Z,995.64
2022-11-21T09:55:02.478Z,995.60
2022-11-21T09:56:02.021Z,995.62
2022-11-21T09:57:02.304Z,995.60
2022-11-21T09:58:02.762Z,995.52
2022-11-21T09:59:02.329Z,995.53
2022-11-21T10:00:02.773Z,995.51
2022-11-21T10:01:03.162Z,995.46
2022-11-21T10:02:02.631Z,995.47
2022-11-21T10:03:02.698Z,995.48
2022-11-21T10:04:02.565Z,995.49
2022-11-21T10:05:03.062Z,995.48
2022-11-21T10:06:02.479Z,995.51
2022-11-21T10:07:02.131Z,995.47
2022-11-21T10:08:01.960Z,995.46
2022-11-21T10:09:02.571Z,995.43
2022-11-21T10:10:02.114Z,995.36
2022-11-21T10:11:11.437Z,995.32
2022-11-21T10:12:02.105Z,995.31
2022-11-21T10:13:02.357Z,995.29
2022-11-21T10:14:02.213Z,995.28
2022-11-21T10:15:01.927Z,995.24
2022-11-21T10:16:02.408Z,995.21
2022-11-21T10:17:02.208Z,995.27
2022-11-21T10:18:02.575Z,995.21
2022-11-21T10:19:02.136Z,995.19
2022-11-21T10:20:02.375Z,995.15
2022-11-21T10:21:02.119Z,995.17
2022-11-21T10:22:02.877Z,995.13
2022-11-21T10:23:02.762Z,995.11
2022-11-21T10:24:02.410Z,995.15
2022-11-21T10:25:03.010Z,995.10
2022-11-21T10:26:02.669Z,995.07
2022-11-21T10:27:02.433Z,995.07
2022-11-21T10:28:02.283Z,995.07
2022-11-21T10:29:02.100Z,995.08
2022-11-21T10:30:02.630Z,995.05
2022-11-21T10:31:02.400Z,994.99
2022-11-21T10:32:01.999Z,995.00
2022-11-21T10:33:01.655Z,994.93
2022-11-21T10:34:02.057Z,994.91
2022-11-21T10:35:02.309Z,994.89
2022-11-21T10:36:02.098Z,994.89
2022-11-21T10:37:06.379Z,994.89
2022-11-21T10:38:02.611Z,994.87
2022-11-21T10:39:02.684Z,994.89
2022-11-21T10:40:02.900Z,994.85
2022-11-21T10:41:02.682Z,994.82
2022-11-21T10:42:02.410Z,994.84
2022-11-21T10:43:02.271Z,994.84
2022-11-21T10:44:02.477Z,994.82
2022-11-21T10:45:02.619Z,994.79
2022-11-21T10:46:02.234Z,994.85
2022-11-21T10:47:02.790Z,994.88
2022-11-21T10:48:08.055Z,994.80
2022-11-21T10:49:02.725Z,994.83
2022-11-21T10:50:02.534Z,994.76
2022-11-21T10:51:02.577Z,994.75
2022-11-21T10:52:02.180Z,994.76
2022-11-21T10:53:02.225Z,994.75
2022-11-21T10:54:07.629Z,994.72
2022-11-21T10:55:02.239Z,994.70
2022-11-21T10:56:02.102Z,994.73
2022-11-21T10:57:02.461Z,994.72
2022-11-21T10:58:02.262Z,994.71
2022-11-21T10:59:02.119Z,994.76
2022-11-21T11:00:02.485Z,994.75
2022-11-21T11:01:02.263Z,994.73
2022-11-21T11:02:02.886Z,994.67
2022-11-21T11:03:02.982Z,994.66
2022-11-21T11:04:26.236Z,994.62
2022-11-21T11:05:02.826Z,994.59
2022-11-21T11:06:02.669Z,994.54
2022-11-21T11:07:03.275Z,994.52
2022-11-21T11:08:03.467Z,994.47
2022-11-21T11:09:02.847Z,994.47
2022-11-21T11:10:03.417Z,994.45
2022-11-21T11:11:02.941Z,994.46
2022-11-21T11:12:02.728Z,994.44
2022-11-21T11:13:08.756Z,994.41
2022-11-21T11:14:02.495Z,994.42
2022-11-21T11:15:02.655Z,994.43
2022-11-21T11:16:02.402Z,994.37
2022-11-21T11:17:02.767Z,994.38
2022-11-21T11:18:08.839Z,994.35
2022-11-21T11:19:02.903Z,994.32
2022-11-21T11:20:02.904Z,994.30
2022-11-21T11:21:02.698Z,994.31
2022-11-21T11:22:02.970Z,994.28
2022-11-21T11:23:02.752Z,994.30
2022-11-21T11:24:02.467Z,994.25
2022-11-21T11:25:02.893Z,994.23
2022-11-21T11:26:02.681Z,994.21
2022-11-21T11:27:03.251Z,994.16
2022-11-21T11:28:02.800Z,994.16
2022-11-21T11:29:03.210Z,994.14
2022-11-21T11:30:03.035Z,994.11
2022-11-21T11:31:02.848Z,994.06
2022-11-21T11:32:02.876Z,994.05
2022-11-21T11:33:02.853Z,993.99
2022-11-21T11:34:02.810Z,994.02
2022-11-21T11:35:02.893Z,994.01
2022-11-21T11:36:02.579Z,994.02
2022-11-21T11:37:03.074Z,993.97
2022-11-21T11:38:02.526Z,993.97
2022-11-21T11:39:02.573Z,993.95
2022-11-21T11:40:03.114Z,993.95
2022-11-21T11:41:02.511Z,993.91
2022-11-21T11:42:03.286Z,993.89
2022-11-21T11:43:03.073Z,993.89
2022-11-21T11:44:02.879Z,993.85
2022-11-21T11:45:02.748Z,993.86
2022-11-21T11:46:03.174Z,993.81
2022-11-21T11:47:03.693Z,993.77
2022-11-21T11:48:03.322Z,993.78
2022-11-21T11:49:19.680Z,993.76
2022-11-21T11:50:03.570Z,993.75
2022-11-21T11:51:03.148Z,993.74
2022-11-21T11:52:03.348Z,993.70
2022-11-21T11:53:02.887Z,993.69
2022-11-21T11:54:03.337Z,993.62
2022-11-21T11:55:02.912Z,993.58
2022-11-21T11:56:03.387Z,993.53
2022-11-21T11:57:03.668Z,993.51
2022-11-21T11:58:03.167Z,993.55
2022-11-21T11:59:03.662Z,993.53
2022-11-21T12:00:03.330Z,993.56
2022-11-21T12:01:03.320Z,993.50
2022-11-21T12:02:08.856Z,993.48
2022-11-21T12:03:03.389Z,993.49
2022-11-21T12:04:03.133Z,993.48
2022-11-21T12:05:03.272Z,993.46
2022-11-21T12:06:08.649Z,993.46
2022-11-21T12:08:05.952Z,993.45
2022-11-21T12:09:02.547Z,993.42
2022-11-21T12:10:02.420Z,993.41
2022-11-21T12:11:02.637Z,993.42
2022-11-21T12:12:02.767Z,993.45
2022-11-21T12:13:03.292Z,993.45
2022-11-21T12:14:03.089Z,993.44
2022-11-21T12:15:02.952Z,993.43
2022-11-21T12:16:08.551Z,993.40
2022-11-21T12:17:03.227Z,993.37
2022-11-21T12:18:02.897Z,993.40
2022-11-21T12:19:02.475Z,993.40
2022-11-21T12:20:02.429Z,993.42
2022-11-21T12:21:02.462Z,993.41
2022-11-21T12:22:02.718Z,993.43
2022-11-21T12:23:03.112Z,993.39
2022-11-21T12:24:02.957Z,993.36
2022-11-21T12:25:03.384Z,993.34
2022-11-21T12:26:02.886Z,993.32
2022-11-21T12:27:03.203Z,993.29
2022-11-21T12:28:02.713Z,993.30
2022-11-21T12:29:03.153Z,993.29